sensor_id;sensor_type;location;lat;lon;timestamp;P1;durP1;ratioP1;P2;durP2;ratioP2
37321;SDS011;23697;48.684;9.032;2023-03-13T00:00:23;0.47;;;0.22;;
37321;SDS011;23697;48.684;9.032;2023-03-13T00:02:51;0.73;;;0.73;;
37321;SDS011;23697;48.684;9.032;2023-03-13T00:05:18;0.82;;;0.20;;
37321;SDS011;23697;48.684;9.032;2023-03-13T00:07:45;0.38;;;0.30;;
37321;SDS011;23697;48.684;9.032;2023-03-13T00:10:11;0.10;;;0.10;;
37321;SDS011;23697;48.684;9.032;2023-03-13T00:12:38;0.30;;;0.30;;
37321;SDS011;23697;48.684;9.032;2023-03-13T00:15:05;0.98;;;0.32;;
37321;SDS011;23697;48.684;9.032;2023-03-13T00:17:33;0.30;;;0.30;;
37321;SDS011;23697;48.684;9.032;2023-03-13T00:20:01;0.10;;;0.10;;
37321;SDS011;23697;48.684;9.032;2023-03-13T00:22:29;0.35;;;0.20;;
37321;SDS011;23697;48.684;9.032;2023-03-13T00:24:55;0.15;;;0.15;;
37321;SDS011;23697;48.684;9.032;2023-03-13T00:27:23;0.20;;;0.20;;
37321;SDS011;23697;48.684;9.032;2023-03-13T00:29:49;0.35;;;0.32;;
37321;SDS011;23697;48.684;9.032;2023-03-13T00:32:16;0.00;;;0.00;;
37321;SDS011;23697;48.684;9.032;2023-03-13T00:34:43;0.20;;;0.20;;
37321;SDS011;23697;48.684;9.032;2023-03-13T00:37:11;0.55;;;0.40;;
37321;SDS011;23697;48.684;9.032;2023-03-13T00:39:38;0.10;;;0.10;;
37321;SDS011;23697;48.684;9.032;2023-03-13T00:42:05;0.17;;;0.17;;
37321;SDS011;23697;48.684;9.032;2023-03-13T00:44:32;0.47;;;0.40;;
37321;SDS011;23697;48.684;9.032;2023-03-13T00:46:59;0.90;;;0.45;;
37321;SDS011;23697;48.684;9.032;2023-03-13T00:49:26;1.80;;;0.20;;
37321;SDS011;23697;48.684;9.032;2023-03-13T00:51:52;0.25;;;0.25;;
37321;SDS011;23697;48.684;9.032;2023-03-13T00:54:21;0.75;;;0.30;;
37321;SDS011;23697;48.684;9.032;2023-03-13T00:56:47;0.63;;;0.40;;
37321;SDS011;23697;48.684;9.032;2023-03-13T00:59:14;0.00;;;0.00;;
37321;SDS011;23697;48.684;9.032;2023-03-13T01:01:41;0.13;;;0.13;;
37321;SDS011;23697;48.684;9.032;2023-03-13T01:04:09;0.20;;;0.20;;
37321;SDS011;23697;48.684;9.032;2023-03-13T01:06:38;0.20;;;0.20;;
37321;SDS011;23697;48.684;9.032;2023-03-13T01:09:07;0.38;;;0.20;;
37321;SDS011;23697;48.684;9.032;2023-03-13T01:11:36;0.43;;;0.43;;
37321;SDS011;23697;48.684;9.032;2023-03-13T01:14:06;0.28;;;0.25;;
37321;SDS011;23697;48.684;9.032;2023-03-13T01:16:35;0.10;;;0.10;;
37321;SDS011;23697;48.684;9.032;2023-03-13T01:19:03;0.35;;;0.35;;
37321;SDS011;23697;48.684;9.032;2023-03-13T01:21:31;0.10;;;0.10;;
37321;SDS011;23697;48.684;9.032;2023-03-13T01:23:58;0.45;;;0.25;;
37321;SDS011;23697;48.684;9.032;2023-03-13T01:26:30;0.10;;;0.10;;
37321;SDS011;23697;48.684;9.032;2023-03-13T01:28:58;0.20;;;0.20;;
37321;SDS011;23697;48.684;9.032;2023-03-13T01:31:28;0.10;;;0.10;;
37321;SDS011;23697;48.684;9.032;2023-03-13T01:33:58;0.00;;;0.00;;
37321;SDS011;23697;48.684;9.032;2023-03-13T01:36:27;0.10;;;0.10;;
37321;SDS011;23697;48.684;9.032;2023-03-13T01:38:56;0.20;;;0.20;;
37321;SDS011;23697;48.684;9.032;2023-03-13T01:41:24;0.10;;;0.10;;
37321;SDS011;23697;48.684;9.032;2023-03-13T01:43:52;0.03;;;0.03;;
37321;SDS011;23697;48.684;9.032;2023-03-13T01:46:22;0.20;;;0.20;;
37321;SDS011;23697;48.684;9.032;2023-03-13T01:48:51;0.10;;;0.10;;
37321;SDS011;23697;48.684;9.032;2023-03-13T01:51:24;0.00;;;0.00;;
37321;SDS011;23697;48.684;9.032;2023-03-13T01:53:55;0.10;;;0.10;;
37321;SDS011;23697;48.684;9.032;2023-03-13T01:56:27;0.38;;;0.20;;
37321;SDS011;23697;48.684;9.032;2023-03-13T01:58:58;0.00;;;0.00;;
37321;SDS011;23697;48.684;9.032;2023-03-13T02:01:27;0.45;;;0.20;;
37321;SDS011;23697;48.684;9.032;2023-03-13T02:03:55;0.15;;;0.15;;
37321;SDS011;23697;48.684;9.032;2023-03-13T02:06:22;0.00;;;0.00;;
37321;SDS011;23697;48.684;9.032;2023-03-13T02:08:51;0.10;;;0.10;;
37321;SDS011;23697;48.684;9.032;2023-03-13T02:11:23;0.40;;;0.40;;
37321;SDS011;23697;48.684;9.032;2023-03-13T02:13:54;0.20;;;0.20;;
37321;SDS011;23697;48.684;9.032;2023-03-13T02:16:24;0.00;;;0.00;;
37321;SDS011;23697;48.684;9.032;2023-03-13T02:18:52;0.10;;;0.10;;
37321;SDS011;23697;48.684;9.032;2023-03-13T02:21:23;0.03;;;0.03;;
37321;SDS011;23697;48.684;9.032;2023-03-13T02:24:01;0.00;;;0.00;;
37321;SDS011;23697;48.684;9.032;2023-03-13T02:26:36;0.10;;;0.10;;
37321;SDS011;23697;48.684;9.032;2023-03-13T02:29:03;0.10;;;0.10;;
37321;SDS011;23697;48.684;9.032;2023-03-13T02:31:30;0.17;;;0.10;;
37321;SDS011;23697;48.684;9.032;2023-03-13T02:33:57;0.30;;;0.30;;
37321;SDS011;23697;48.684;9.032;2023-03-13T02:36:27;0.20;;;0.20;;
37321;SDS011;23697;48.684;9.032;2023-03-13T02:38:56;0.20;;;0.13;;
37321;SDS011;23697;48.684;9.032;2023-03-13T02:41:28;2.25;;;0.35;;
37321;SDS011;23697;48.684;9.032;2023-03-13T02:43:57;0.10;;;0.10;;
37321;SDS011;23697;48.684;9.032;2023-03-13T02:46:24;0.30;;;0.30;;
37321;SDS011;23697;48.684;9.032;2023-03-13T02:48:52;0.10;;;0.10;;
37321;SDS011;23697;48.684;9.032;2023-03-13T02:51:21;3.45;;;0.22;;
37321;SDS011;23697;48.684;9.032;2023-03-13T02:53:54;0.13;;;0.10;;
37321;SDS011;23697;48.684;9.032;2023-03-13T02:56:24;0.10;;;0.10;;
37321;SDS011;23697;48.684;9.032;2023-03-13T02:58:52;0.00;;;0.00;;
37321;SDS011;23697;48.684;9.032;2023-03-13T03:01:20;0.00;;;0.00;;
37321;SDS011;23697;48.684;9.032;2023-03-13T03:03:47;0.10;;;0.10;;
37321;SDS011;23697;48.684;9.032;2023-03-13T03:06:14;0.00;;;0.00;;
37321;SDS011;23697;48.684;9.032;2023-03-13T03:08:40;0.10;;;0.10;;
37321;SDS011;23697;48.684;9.032;2023-03-13T03:11:08;0.28;;;0.28;;
37321;SDS011;23697;48.684;9.032;2023-03-13T03:13:35;0.52;;;0.10;;
37321;SDS011;23697;48.684;9.032;2023-03-13T03:16:05;0.60;;;0.22;;
37321;SDS011;23697;48.684;9.032;2023-03-13T03:18:34;0.10;;;0.10;;
37321;SDS011;23697;48.684;9.032;2023-03-13T03:21:01;0.10;;;0.10;;
37321;SDS011;23697;48.684;9.032;2023-03-13T03:23:30;0.05;;;0.05;;
37321;SDS011;23697;48.684;9.032;2023-03-13T03:25:57;0.10;;;0.10;;
37321;SDS011;23697;48.684;9.032;2023-03-13T03:28:24;0.43;;;0.30;;
37321;SDS011;23697;48.684;9.032;2023-03-13T03:30:51;0.10;;;0.10;;
37321;SDS011;23697;48.684;9.032;2023-03-13T03:33:18;0.17;;;0.17;;
37321;SDS011;23697;48.684;9.032;2023-03-13T03:35:46;0.52;;;0.30;;
37321;SDS011;23697;48.684;9.032;2023-03-13T03:38:13;0.05;;;0.05;;
37321;SDS011;23697;48.684;9.032;2023-03-13T03:40:40;0.20;;;0.20;;
37321;SDS011;23697;48.684;9.032;2023-03-13T03:43:07;0.43;;;0.10;;
37321;SDS011;23697;48.684;9.032;2023-03-13T03:45:34;0.10;;;0.10;;
37321;SDS011;23697;48.684;9.032;2023-03-13T03:48:01;0.25;;;0.20;;
37321;SDS011;23697;48.684;9.032;2023-03-13T03:50:27;0.20;;;0.20;;
37321;SDS011;23697;48.684;9.032;2023-03-13T03:52:56;0.17;;;0.15;;
37321;SDS011;23697;48.684;9.032;2023-03-13T03:55:23;0.20;;;0.20;;
37321;SDS011;23697;48.684;9.032;2023-03-13T03:57:50;0.05;;;0.05;;
37321;SDS011;23697;48.684;9.032;2023-03-13T04:00:17;0.17;;;0.17;;
37321;SDS011;23697;48.684;9.032;2023-03-13T04:02:44;0.10;;;0.10;;
37321;SDS011;23697;48.684;9.032;2023-03-13T04:05:11;0.10;;;0.10;;
37321;SDS011;23697;48.684;9.032;2023-03-13T04:07:38;0.20;;;0.20;;
37321;SDS011;23697;48.684;9.032;2023-03-13T04:10:07;0.20;;;0.10;;
37321;SDS011;23697;48.684;9.032;2023-03-13T04:12:34;0.05;;;0.05;;
37321;SDS011;23697;48.684;9.032;2023-03-13T04:15:01;0.00;;;0.00;;
37321;SDS011;23697;48.684;9.032;2023-03-13T04:17:29;0.30;;;0.30;;
37321;SDS011;23697;48.684;9.032;2023-03-13T04:19:57;0.00;;;0.00;;
37321;SDS011;23697;48.684;9.032;2023-03-13T04:22:24;0.10;;;0.10;;
37321;SDS011;23697;48.684;9.032;2023-03-13T04:24:51;0.10;;;0.10;;
37321;SDS011;23697;48.684;9.032;2023-03-13T04:27:19;0.10;;;0.10;;
37321;SDS011;23697;48.684;9.032;2023-03-13T04:29:46;0.00;;;0.00;;
37321;SDS011;23697;48.684;9.032;2023-03-13T04:32:13;0.03;;;0.03;;
37321;SDS011;23697;48.684;9.032;2023-03-13T04:34:40;0.10;;;0.10;;
37321;SDS011;23697;48.684;9.032;2023-03-13T04:37:07;0.10;;;0.10;;
37321;SDS011;23697;48.684;9.032;2023-03-13T04:39:34;0.10;;;0.10;;
37321;SDS011;23697;48.684;9.032;2023-03-13T04:42:01;0.10;;;0.10;;
37321;SDS011;23697;48.684;9.032;2023-03-13T04:44:29;0.05;;;0.05;;
37321;SDS011;23697;48.684;9.032;2023-03-13T04:46:56;0.00;;;0.00;;
37321;SDS011;23697;48.684;9.032;2023-03-13T04:49:23;0.10;;;0.10;;
37321;SDS011;23697;48.684;9.032;2023-03-13T04:51:50;0.20;;;0.20;;
37321;SDS011;23697;48.684;9.032;2023-03-13T04:54:17;0.10;;;0.10;;
37321;SDS011;23697;48.684;9.032;2023-03-13T04:56:44;0.10;;;0.10;;
37321;SDS011;23697;48.684;9.032;2023-03-13T04:59:11;0.10;;;0.10;;
37321;SDS011;23697;48.684;9.032;2023-03-13T05:01:40;0.20;;;0.10;;
37321;SDS011;23697;48.684;9.032;2023-03-13T05:04:08;0.08;;;0.08;;
37321;SDS011;23697;48.684;9.032;2023-03-13T05:06:35;0.20;;;0.20;;
37321;SDS011;23697;48.684;9.032;2023-03-13T05:09:03;0.10;;;0.10;;
37321;SDS011;23697;48.684;9.032;2023-03-13T05:11:31;0.10;;;0.10;;
37321;SDS011;23697;48.684;9.032;2023-03-13T05:13:58;0.10;;;0.10;;
37321;SDS011;23697;48.684;9.032;2023-03-13T05:16:25;0.13;;;0.13;;
37321;SDS011;23697;48.684;9.032;2023-03-13T05:18:53;0.10;;;0.10;;
37321;SDS011;23697;48.684;9.032;2023-03-13T05:21:20;0.00;;;0.00;;
37321;SDS011;23697;48.684;9.032;2023-03-13T05:23:47;0.20;;;0.20;;
37321;SDS011;23697;48.684;9.032;2023-03-13T05:26:14;0.32;;;0.20;;
37321;SDS011;23697;48.684;9.032;2023-03-13T05:28:41;0.08;;;0.08;;
37321;SDS011;23697;48.684;9.032;2023-03-13T05:31:08;0.10;;;0.10;;
37321;SDS011;23697;48.684;9.032;2023-03-13T05:33:35;0.00;;;0.00;;
37321;SDS011;23697;48.684;9.032;2023-03-13T05:36:04;0.00;;;0.00;;
37321;SDS011;23697;48.684;9.032;2023-03-13T05:38:31;0.00;;;0.00;;
37321;SDS011;23697;48.684;9.032;2023-03-13T05:40:58;0.10;;;0.10;;
37321;SDS011;23697;48.684;9.032;2023-03-13T05:43:25;0.10;;;0.10;;
37321;SDS011;23697;48.684;9.032;2023-03-13T05:45:52;0.10;;;0.10;;
37321;SDS011;23697;48.684;9.032;2023-03-13T05:48:19;0.00;;;0.00;;
37321;SDS011;23697;48.684;9.032;2023-03-13T05:50:46;0.00;;;0.00;;
37321;SDS011;23697;48.684;9.032;2023-03-13T05:53:14;0.43;;;0.43;;
37321;SDS011;23697;48.684;9.032;2023-03-13T05:55:41;0.00;;;0.00;;
37321;SDS011;23697;48.684;9.032;2023-03-13T05:58:08;0.00;;;0.00;;
37321;SDS011;23697;48.684;9.032;2023-03-13T06:00:34;0.10;;;0.10;;
37321;SDS011;23697;48.684;9.032;2023-03-13T06:03:01;0.38;;;0.38;;
37321;SDS011;23697;48.684;9.032;2023-03-13T06:05:28;0.00;;;0.00;;
37321;SDS011;23697;48.684;9.032;2023-03-13T06:07:55;0.17;;;0.10;;
37321;SDS011;23697;48.684;9.032;2023-03-13T06:10:23;0.35;;;0.10;;
37321;SDS011;23697;48.684;9.032;2023-03-13T06:12:53;0.00;;;0.00;;
37321;SDS011;23697;48.684;9.032;2023-03-13T06:15:20;0.00;;;0.00;;
37321;SDS011;23697;48.684;9.032;2023-03-13T06:17:48;0.00;;;0.00;;
37321;SDS011;23697;48.684;9.032;2023-03-13T06:20:15;0.10;;;0.10;;
37321;SDS011;23697;48.684;9.032;2023-03-13T06:22:42;0.17;;;0.10;;
37321;SDS011;23697;48.684;9.032;2023-03-13T06:25:09;0.13;;;0.10;;
37321;SDS011;23697;48.684;9.032;2023-03-13T06:27:38;0.03;;;0.03;;
37321;SDS011;23697;48.684;9.032;2023-03-13T06:30:07;0.10;;;0.10;;
37321;SDS011;23697;48.684;9.032;2023-03-13T06:32:35;0.10;;;0.10;;
37321;SDS011;23697;48.684;9.032;2023-03-13T06:35:02;0.10;;;0.10;;
37321;SDS011;23697;48.684;9.032;2023-03-13T06:37:30;0.00;;;0.00;;
37321;SDS011;23697;48.684;9.032;2023-03-13T06:39:57;0.10;;;0.10;;
37321;SDS011;23697;48.684;9.032;2023-03-13T06:42:24;0.10;;;0.10;;
37321;SDS011;23697;48.684;9.032;2023-03-13T06:44:52;0.10;;;0.10;;
37321;SDS011;23697;48.684;9.032;2023-03-13T06:47:19;0.10;;;0.10;;
37321;SDS011;23697;48.684;9.032;2023-03-13T06:49:46;0.00;;;0.00;;
37321;SDS011;23697;48.684;9.032;2023-03-13T06:52:14;0.00;;;0.00;;
37321;SDS011;23697;48.684;9.032;2023-03-13T06:54:41;0.10;;;0.10;;
37321;SDS011;23697;48.684;9.032;2023-03-13T06:57:09;0.00;;;0.00;;
37321;SDS011;23697;48.684;9.032;2023-03-13T06:59:36;0.10;;;0.10;;
37321;SDS011;23697;48.684;9.032;2023-03-13T07:02:05;0.08;;;0.08;;
37321;SDS011;23697;48.684;9.032;2023-03-13T07:04:31;0.35;;;0.32;;
37321;SDS011;23697;48.684;9.032;2023-03-13T07:06:58;0.00;;;0.00;;
37321;SDS011;23697;48.684;9.032;2023-03-13T07:09:25;0.03;;;0.03;;
37321;SDS011;23697;48.684;9.032;2023-03-13T07:11:52;0.10;;;0.10;;
37321;SDS011;23697;48.684;9.032;2023-03-13T07:14:19;0.00;;;0.00;;
37321;SDS011;23697;48.684;9.032;2023-03-13T07:16:45;0.65;;;0.25;;
37321;SDS011;23697;48.684;9.032;2023-03-13T07:19:14;0.10;;;0.10;;
37321;SDS011;23697;48.684;9.032;2023-03-13T07:21:42;0.10;;;0.10;;
37321;SDS011;23697;48.684;9.032;2023-03-13T07:24:09;0.10;;;0.10;;
37321;SDS011;23697;48.684;9.032;2023-03-13T07:26:36;0.13;;;0.13;;
37321;SDS011;23697;48.684;9.032;2023-03-13T07:29:03;0.10;;;0.10;;
37321;SDS011;23697;48.684;9.032;2023-03-13T07:31:29;0.13;;;0.13;;
37321;SDS011;23697;48.684;9.032;2023-03-13T07:33:58;0.10;;;0.10;;
37321;SDS011;23697;48.684;9.032;2023-03-13T07:36:26;0.10;;;0.10;;
37321;SDS011;23697;48.684;9.032;2023-03-13T07:38:53;0.00;;;0.00;;
37321;SDS011;23697;48.684;9.032;2023-03-13T07:41:20;0.13;;;0.13;;
37321;SDS011;23697;48.684;9.032;2023-03-13T07:43:47;0.10;;;0.10;;
37321;SDS011;23697;48.684;9.032;2023-03-13T07:46:15;0.10;;;0.10;;
37321;SDS011;23697;48.684;9.032;2023-03-13T07:48:44;0.40;;;0.30;;
37321;SDS011;23697;48.684;9.032;2023-03-13T07:51:12;0.10;;;0.10;;
37321;SDS011;23697;48.684;9.032;2023-03-13T07:53:42;0.30;;;0.20;;
37321;SDS011;23697;48.684;9.032;2023-03-13T07:56:10;0.20;;;0.20;;
37321;SDS011;23697;48.684;9.032;2023-03-13T07:58:38;0.10;;;0.10;;
37321;SDS011;23697;48.684;9.032;2023-03-13T08:01:09;0.20;;;0.20;;
37321;SDS011;23697;48.684;9.032;2023-03-13T08:03:37;0.10;;;0.10;;
37321;SDS011;23697;48.684;9.032;2023-03-13T08:06:04;0.10;;;0.10;;
37321;SDS011;23697;48.684;9.032;2023-03-13T08:08:33;0.17;;;0.17;;
37321;SDS011;23697;48.684;9.032;2023-03-13T08:11:03;0.20;;;0.20;;
37321;SDS011;23697;48.684;9.032;2023-03-13T08:13:31;0.15;;;0.15;;
37321;SDS011;23697;48.684;9.032;2023-03-13T08:16:03;0.20;;;0.20;;
37321;SDS011;23697;48.684;9.032;2023-03-13T08:18:31;0.10;;;0.10;;
37321;SDS011;23697;48.684;9.032;2023-03-13T08:21:00;0.20;;;0.20;;
37321;SDS011;23697;48.684;9.032;2023-03-13T08:23:28;0.10;;;0.10;;
37321;SDS011;23697;48.684;9.032;2023-03-13T08:25:55;0.10;;;0.10;;
37321;SDS011;23697;48.684;9.032;2023-03-13T08:28:23;0.20;;;0.20;;
37321;SDS011;23697;48.684;9.032;2023-03-13T08:30:50;0.17;;;0.17;;
37321;SDS011;23697;48.684;9.032;2023-03-13T08:33:16;0.47;;;0.28;;
37321;SDS011;23697;48.684;9.032;2023-03-13T08:35:43;0.10;;;0.10;;
37321;SDS011;23697;48.684;9.032;2023-03-13T08:38:10;0.10;;;0.10;;
37321;SDS011;23697;48.684;9.032;2023-03-13T08:40:37;0.47;;;0.20;;
37321;SDS011;23697;48.684;9.032;2023-03-13T08:43:04;0.20;;;0.20;;
37321;SDS011;23697;48.684;9.032;2023-03-13T08:45:32;0.25;;;0.20;;
37321;SDS011;23697;48.684;9.032;2023-03-13T08:47:59;0.93;;;0.38;;
37321;SDS011;23697;48.684;9.032;2023-03-13T08:50:25;0.10;;;0.10;;
37321;SDS011;23697;48.684;9.032;2023-03-13T08:52:53;0.10;;;0.10;;
37321;SDS011;23697;48.684;9.032;2023-03-13T08:55:19;0.10;;;0.10;;
37321;SDS011;23697;48.684;9.032;2023-03-13T08:57:46;0.52;;;0.20;;
37321;SDS011;23697;48.684;9.032;2023-03-13T09:00:13;0.30;;;0.30;;
37321;SDS011;23697;48.684;9.032;2023-03-13T09:02:44;0.10;;;0.10;;
37321;SDS011;23697;48.684;9.032;2023-03-13T09:05:10;0.10;;;0.10;;
37321;SDS011;23697;48.684;9.032;2023-03-13T09:07:37;0.38;;;0.30;;
37321;SDS011;23697;48.684;9.032;2023-03-13T09:10:05;0.20;;;0.20;;
37321;SDS011;23697;48.684;9.032;2023-03-13T09:12:32;0.20;;;0.20;;
37321;SDS011;23697;48.684;9.032;2023-03-13T09:14:59;0.10;;;0.10;;
37321;SDS011;23697;48.684;9.032;2023-03-13T09:17:26;0.30;;;0.30;;
37321;SDS011;23697;48.684;9.032;2023-03-13T09:19:54;0.20;;;0.20;;
37321;SDS011;23697;48.684;9.032;2023-03-13T09:22:21;0.30;;;0.30;;
37321;SDS011;23697;48.684;9.032;2023-03-13T09:24:48;0.32;;;0.30;;
37321;SDS011;23697;48.684;9.032;2023-03-13T09:27:15;0.17;;;0.17;;
37321;SDS011;23697;48.684;9.032;2023-03-13T09:29:42;0.30;;;0.30;;
37321;SDS011;23697;48.684;9.032;2023-03-13T09:32:09;0.10;;;0.10;;
37321;SDS011;23697;48.684;9.032;2023-03-13T09:34:35;0.15;;;0.15;;
37321;SDS011;23697;48.684;9.032;2023-03-13T09:37:04;0.20;;;0.20;;
37321;SDS011;23697;48.684;9.032;2023-03-13T09:39:31;2.28;;;0.32;;
37321;SDS011;23697;48.684;9.032;2023-03-13T09:42:00;0.20;;;0.20;;
37321;SDS011;23697;48.684;9.032;2023-03-13T09:44:35;0.30;;;0.30;;
37321;SDS011;23697;48.684;9.032;2023-03-13T09:47:08;0.10;;;0.10;;
37321;SDS011;23697;48.684;9.032;2023-03-13T09:49:39;0.38;;;0.30;;
37321;SDS011;23697;48.684;9.032;2023-03-13T09:52:15;0.75;;;0.35;;
37321;SDS011;23697;48.684;9.032;2023-03-13T09:54:45;0.38;;;0.30;;
37321;SDS011;23697;48.684;9.032;2023-03-13T09:57:15;0.30;;;0.30;;
37321;SDS011;23697;48.684;9.032;2023-03-13T09:59:50;0.20;;;0.20;;
37321;SDS011;23697;48.684;9.032;2023-03-13T10:02:24;0.20;;;0.20;;
37321;SDS011;23697;48.684;9.032;2023-03-13T10:04:55;0.32;;;0.32;;
37321;SDS011;23697;48.684;9.032;2023-03-13T10:07:37;0.20;;;0.20;;
37321;SDS011;23697;48.684;9.032;2023-03-13T10:10:06;0.10;;;0.10;;
37321;SDS011;23697;48.684;9.032;2023-03-13T10:12:40;0.60;;;0.30;;
37321;SDS011;23697;48.684;9.032;2023-03-13T10:15:18;0.30;;;0.30;;
37321;SDS011;23697;48.684;9.032;2023-03-13T10:17:58;0.63;;;0.63;;
37321;SDS011;23697;48.684;9.032;2023-03-13T10:20:28;0.43;;;0.30;;
37321;SDS011;23697;48.684;9.032;2023-03-13T10:23:02;0.45;;;0.45;;
37321;SDS011;23697;48.684;9.032;2023-03-13T10:25:33;0.88;;;0.55;;
37321;SDS011;23697;48.684;9.032;2023-03-13T10:28:02;0.57;;;0.57;;
37321;SDS011;23697;48.684;9.032;2023-03-13T10:30:30;0.30;;;0.30;;
37321;SDS011;23697;48.684;9.032;2023-03-13T10:33:23;0.70;;;0.50;;
37321;SDS011;23697;48.684;9.032;2023-03-13T10:36:05;0.65;;;0.50;;
37321;SDS011;23697;48.684;9.032;2023-03-13T10:38:45;2.05;;;0.55;;
37321;SDS011;23697;48.684;9.032;2023-03-13T10:41:21;0.45;;;0.38;;
37321;SDS011;23697;48.684;9.032;2023-03-13T10:43:52;0.40;;;0.40;;
37321;SDS011;23697;48.684;9.032;2023-03-13T10:46:23;0.85;;;0.60;;
37321;SDS011;23697;48.684;9.032;2023-03-13T10:48:52;0.47;;;0.45;;
37321;SDS011;23697;48.684;9.032;2023-03-13T10:51:20;0.40;;;0.40;;
37321;SDS011;23697;48.684;9.032;2023-03-13T10:53:50;0.47;;;0.43;;
37321;SDS011;23697;48.684;9.032;2023-03-13T10:56:19;0.70;;;0.40;;
37321;SDS011;23697;48.684;9.032;2023-03-13T10:58:51;0.40;;;0.40;;
37321;SDS011;23697;48.684;9.032;2023-03-13T11:01:20;0.30;;;0.30;;
37321;SDS011;23697;48.684;9.032;2023-03-13T11:03:49;0.28;;;0.28;;
37321;SDS011;23697;48.684;9.032;2023-03-13T11:06:27;0.30;;;0.30;;
37321;SDS011;23697;48.684;9.032;2023-03-13T11:09:10;0.40;;;0.40;;
37321;SDS011;23697;48.684;9.032;2023-03-13T11:12:16;0.95;;;0.75;;
37321;SDS011;23697;48.684;9.032;2023-03-13T11:14:46;1.17;;;0.82;;
37321;SDS011;23697;48.684;9.032;2023-03-13T11:17:14;1.77;;;1.33;;
37321;SDS011;23697;48.684;9.032;2023-03-13T11:19:52;1.23;;;0.65;;
37321;SDS011;23697;48.684;9.032;2023-03-13T11:22:29;2.17;;;0.35;;
37321;SDS011;23697;48.684;9.032;2023-03-13T11:25:11;0.40;;;0.40;;
37321;SDS011;23697;48.684;9.032;2023-03-13T11:27:45;0.32;;;0.32;;
37321;SDS011;23697;48.684;9.032;2023-03-13T11:30:22;1.05;;;0.63;;
37321;SDS011;23697;48.684;9.032;2023-03-13T11:33:04;0.52;;;0.52;;
37321;SDS011;23697;48.684;9.032;2023-03-13T11:35:38;0.35;;;0.35;;
37321;SDS011;23697;48.684;9.032;2023-03-13T11:38:12;0.80;;;0.70;;
37321;SDS011;23697;48.684;9.032;2023-03-13T11:40:47;1.13;;;0.65;;
37321;SDS011;23697;48.684;9.032;2023-03-13T11:43:24;0.55;;;0.50;;
37321;SDS011;23697;48.684;9.032;2023-03-13T11:46:07;0.60;;;0.60;;
37321;SDS011;23697;48.684;9.032;2023-03-13T11:48:50;0.40;;;0.40;;
37321;SDS011;23697;48.684;9.032;2023-03-13T11:51:57;0.38;;;0.30;;
37321;SDS011;23697;48.684;9.032;2023-03-13T11:54:37;1.60;;;0.70;;
37321;SDS011;23697;48.684;9.032;2023-03-13T11:57:20;1.00;;;0.43;;
37321;SDS011;23697;48.684;9.032;2023-03-13T11:59:57;0.28;;;0.28;;
37321;SDS011;23697;48.684;9.032;2023-03-13T12:02:38;0.40;;;0.40;;
37321;SDS011;23697;48.684;9.032;2023-03-13T12:05:11;0.30;;;0.30;;
37321;SDS011;23697;48.684;9.032;2023-03-13T12:07:41;0.57;;;0.57;;
37321;SDS011;23697;48.684;9.032;2023-03-13T12:10:14;0.60;;;0.60;;
37321;SDS011;23697;48.684;9.032;2023-03-13T12:12:46;0.40;;;0.40;;
37321;SDS011;23697;48.684;9.032;2023-03-13T12:15:18;0.90;;;0.68;;
37321;SDS011;23697;48.684;9.032;2023-03-13T12:17:51;2.35;;;0.98;;
37321;SDS011;23697;48.684;9.032;2023-03-13T12:20:24;0.98;;;0.60;;
37321;SDS011;23697;48.684;9.032;2023-03-13T12:22:55;0.93;;;0.55;;
37321;SDS011;23697;48.684;9.032;2023-03-13T12:25:27;1.05;;;0.52;;
37321;SDS011;23697;48.684;9.032;2023-03-13T12:28:02;0.77;;;0.75;;
37321;SDS011;23697;48.684;9.032;2023-03-13T12:30:36;1.00;;;0.73;;
37321;SDS011;23697;48.684;9.032;2023-03-13T12:33:12;0.43;;;0.43;;
37321;SDS011;23697;48.684;9.032;2023-03-13T12:35:45;0.60;;;0.60;;
37321;SDS011;23697;48.684;9.032;2023-03-13T12:38:19;0.35;;;0.35;;
37321;SDS011;23697;48.684;9.032;2023-03-13T12:40:52;0.63;;;0.63;;
37321;SDS011;23697;48.684;9.032;2023-03-13T12:43:30;0.38;;;0.38;;
37321;SDS011;23697;48.684;9.032;2023-03-13T12:46:03;0.35;;;0.35;;
37321;SDS011;23697;48.684;9.032;2023-03-13T12:48:47;0.32;;;0.32;;
37321;SDS011;23697;48.684;9.032;2023-03-13T12:51:30;0.30;;;0.30;;
37321;SDS011;23697;48.684;9.032;2023-03-13T12:54:17;0.40;;;0.40;;
37321;SDS011;23697;48.684;9.032;2023-03-13T12:57:08;0.55;;;0.50;;
37321;SDS011;23697;48.684;9.032;2023-03-13T12:59:45;0.52;;;0.43;;
37321;SDS011;23697;48.684;9.032;2023-03-13T13:02:15;0.30;;;0.30;;
37321;SDS011;23697;48.684;9.032;2023-03-13T13:04:45;0.32;;;0.32;;
37321;SDS011;23697;48.684;9.032;2023-03-13T13:07:20;0.25;;;0.22;;
37321;SDS011;23697;48.684;9.032;2023-03-13T13:10:00;0.40;;;0.40;;
37321;SDS011;23697;48.684;9.032;2023-03-13T13:12:43;0.30;;;0.30;;
37321;SDS011;23697;48.684;9.032;2023-03-13T13:15:14;0.28;;;0.28;;
37321;SDS011;23697;48.684;9.032;2023-03-13T13:20:42;0.30;;;0.30;;
37321;SDS011;23697;48.684;9.032;2023-03-13T13:32:19;0.22;;;0.22;;
37321;SDS011;23697;48.684;9.032;2023-03-13T13:35:01;0.15;;;0.15;;
37321;SDS011;23697;48.684;9.032;2023-03-13T13:37:30;0.20;;;0.20;;
37321;SDS011;23697;48.684;9.032;2023-03-13T13:40:17;0.32;;;0.32;;
37321;SDS011;23697;48.684;9.032;2023-03-13T13:42:53;0.93;;;0.75;;
37321;SDS011;23697;48.684;9.032;2023-03-13T13:48:26;0.40;;;0.40;;
37321;SDS011;23697;48.684;9.032;2023-03-13T13:53:48;0.38;;;0.30;;
37321;SDS011;23697;48.684;9.032;2023-03-13T14:02:15;0.35;;;0.35;;
37321;SDS011;23697;48.684;9.032;2023-03-13T14:04:55;0.43;;;0.40;;
37321;SDS011;23697;48.684;9.032;2023-03-13T14:07:29;0.32;;;0.32;;
37321;SDS011;23697;48.684;9.032;2023-03-13T14:10:05;2.22;;;0.30;;
37321;SDS011;23697;48.684;9.032;2023-03-13T14:12:44;0.57;;;0.43;;
37321;SDS011;23697;48.684;9.032;2023-03-13T14:15:14;0.30;;;0.30;;
37321;SDS011;23697;48.684;9.032;2023-03-13T14:17:42;0.63;;;0.55;;
37321;SDS011;23697;48.684;9.032;2023-03-13T14:20:21;0.63;;;0.38;;
37321;SDS011;23697;48.684;9.032;2023-03-13T14:22:53;0.82;;;0.50;;
37321;SDS011;23697;48.684;9.032;2023-03-13T14:25:21;0.73;;;0.65;;
37321;SDS011;23697;48.684;9.032;2023-03-13T14:27:50;0.28;;;0.28;;
37321;SDS011;23697;48.684;9.032;2023-03-13T14:30:19;0.50;;;0.43;;
37321;SDS011;23697;48.684;9.032;2023-03-13T14:32:47;0.50;;;0.50;;
37321;SDS011;23697;48.684;9.032;2023-03-13T14:35:16;0.35;;;0.35;;
37321;SDS011;23697;48.684;9.032;2023-03-13T14:37:46;0.40;;;0.40;;
37321;SDS011;23697;48.684;9.032;2023-03-13T14:40:18;0.40;;;0.40;;
37321;SDS011;23697;48.684;9.032;2023-03-13T14:42:48;0.20;;;0.20;;
37321;SDS011;23697;48.684;9.032;2023-03-13T14:45:20;1.95;;;0.63;;
37321;SDS011;23697;48.684;9.032;2023-03-13T14:47:49;0.70;;;0.32;;
37321;SDS011;23697;48.684;9.032;2023-03-13T14:50:17;0.20;;;0.20;;
37321;SDS011;23697;48.684;9.032;2023-03-13T14:52:49;0.40;;;0.40;;
37321;SDS011;23697;48.684;9.032;2023-03-13T14:57:55;0.20;;;0.20;;
37321;SDS011;23697;48.684;9.032;2023-03-13T15:00:29;0.47;;;0.47;;
37321;SDS011;23697;48.684;9.032;2023-03-13T15:05:50;0.40;;;0.40;;
37321;SDS011;23697;48.684;9.032;2023-03-13T15:08:34;0.55;;;0.55;;
37321;SDS011;23697;48.684;9.032;2023-03-13T15:11:02;0.60;;;0.55;;
37321;SDS011;23697;48.684;9.032;2023-03-13T15:13:46;0.20;;;0.20;;
37321;SDS011;23697;48.684;9.032;2023-03-13T15:16:14;0.43;;;0.43;;
37321;SDS011;23697;48.684;9.032;2023-03-13T15:18:43;0.30;;;0.30;;
37321;SDS011;23697;48.684;9.032;2023-03-13T15:21:27;0.68;;;0.68;;
37321;SDS011;23697;48.684;9.032;2023-03-13T15:23:57;0.32;;;0.20;;
37321;SDS011;23697;48.684;9.032;2023-03-13T15:26:26;0.80;;;0.52;;
37321;SDS011;23697;48.684;9.032;2023-03-13T15:28:53;0.80;;;0.52;;
37321;SDS011;23697;48.684;9.032;2023-03-13T15:31:22;2.03;;;0.60;;
37321;SDS011;23697;48.684;9.032;2023-03-13T15:33:53;1.17;;;0.60;;